Flight Track Log - Related Links

Times and Time Zones

All times are in EST time to prevent confusion due to time zone crossing. See the UPS1078 flight status page for this flight to view local times or setup timezone preferences in your user account.

Time Position Orientation Groundspeed Altitude Reporting Facility
EST Latitude Longitude Course Direction KTS MPH feet Rate Location/Type
Fri 05:06:00 AM 41.9436 -72.6772 34° Northeast 145 167 1,800  Level Boston Center
Fri 05:07:09 AM 41.9897 -72.6356 296° West 198 228 4,700 3,116 Climbing Boston Center
Fri 05:08:09 AM 42.0167 -72.7111 252° West 152 175 8,500 3,500 Climbing Boston Center
Fri 05:09:09 AM 41.9892 -72.8228 258° West 181 208 11,700 2,750 Climbing Boston Center
Fri 05:10:09 AM 41.9678 -72.9567 250° West 308 354 14,000 1,200 Climbing Boston Center
Fri 05:11:09 AM 41.9294 -73.0958 245° Southwest 350 403 14,100  Climbing Boston Center
Fri 05:12:09 AM 41.8914 -73.2042 244° Southwest 368 423 14,000  Descending Boston Center
Fri 05:13:09 AM 41.8425 -73.3403 235° Southwest 368 423 14,100 -50 Climbing Boston Center
Fri 05:14:09 AM 41.7853 -73.4508 230° Southwest 368 423 13,900 -100 Descending Boston Center
Fri 05:15:09 AM 41.7156 -73.5608 229° Southwest 379 436 13,900 -650 Level Boston Center
Fri 05:16:09 AM 41.6478 -73.6653 228° Southwest 379 436 12,600 -1,450 Descending Boston Center
Fri 05:17:09 AM 41.5819 -73.7639 228° Southwest 379 436 11,000 -1,350 Descending Boston Center
Fri 05:18:09 AM 41.5161 -73.8622 231° Southwest 364 419 9,900 -500 Descending Boston Center
Fri 05:19:09 AM 41.4564 -73.9608 227° Southwest 356 410 10,000 84 Climbing Boston Center
Fri 05:20:32 AM 41.3833 -74.0667 225° Southwest 268 308 10,100 -587 Climbing New York TRACON
Fri 05:21:32 AM 41.3333 -74.1333 201° Southwest 264 304 8,600 -1,500 Descending New York TRACON
Fri 05:22:32 AM 41.2667 -74.1667 191° South 277 319 7,100 -1,250 Descending New York TRACON
Fri 05:23:32 AM 41.2000 -74.1833 197° South 266 306 6,100 -905 Descending New York TRACON
Fri 05:24:38 AM 41.1167 -74.2167 201° Southwest 267 307 5,200 -476 Descending New York TRACON
Fri 05:25:38 AM 41.0500 -74.2500 191° South 264 304 5,100 -53 Descending New York TRACON
Fri 05:26:32 AM 40.9833 -74.2667 197° South 265 305 5,100 -150 Level New York TRACON
Fri 05:27:38 AM 40.9000 -74.3000 191° South 266 306 4,800 -619 Descending New York TRACON
Fri 05:28:38 AM 40.8333 -74.3167 197° South 267 307 3,800 -810 Descending New York TRACON
Fri 05:29:44 AM 40.7500 -74.3500 191° South 256 295 3,100 -318 Descending New York TRACON
Fri 05:30:50 AM 40.6833 -74.3667 169° South 246 283 3,100  Level New York TRACON
Fri 05:31:50 AM 40.6167 -74.3500 169° South 239 275 3,100  Level New York TRACON
Fri 05:32:50 AM 40.5500 -74.3333 90° East 211 243 3,100 -200 Level New York TRACON
Fri 05:33:50 AM 40.5500 -74.2667 37° Northeast 184 212 2,700 -526 Descending New York TRACON
Fri 05:34:44 AM 40.5833 -74.2333 21° North 168 193 2,100 -579 Descending New York TRACON
Fri 05:35:44 AM 40.6167 -74.2167 21° North 146 168 1,600 -619 Descending New York TRACON
Fri 05:36:50 AM 40.6500 -74.2000 21° North 115 132 800 -727 Descending New York TRACON

Login

Don't have an account? Register now (free) for customized features, flight alerts, and more!